Time;durP1;ratioP1;P1;durP2;ratioP2;P2;SDS_P1;SDS_P2;PMS_P1;PMS_P2;Temp;Humidity;BMP_temperature;BMP_pressure;BME280_temperature;BME280_humidity;BME280_pressure;Samples;Min_cycle;Max_cycle;Signal;HPM_P1;HPM_P2
2021/08/09 00:00:40;;;;;;;1.43;0.87;;;16.00;99.90;;;;;;5062782;28;20590;-70
2021/08/09 00:03:07;;;;;;;1.40;1.30;;;15.90;99.90;;;;;;5069359;28;20290;-69
2021/08/09 00:05:36;;;;;;;0.97;0.90;;;15.80;99.90;;;;;;5069968;28;20268;-69
2021/08/09 00:08:03;;;;;;;0.87;0.87;;;15.90;99.90;;;;;;5053341;28;20503;-69
2021/08/09 00:10:30;;;;;;;2.33;1.27;;;15.80;99.90;;;;;;5068910;28;20480;-68
2021/08/09 00:12:56;;;;;;;1.30;1.07;;;15.90;99.90;;;;;;5068629;28;20474;-68
2021/08/09 00:15:22;;;;;;;1.93;1.73;;;15.80;99.90;;;;;;5069782;28;20469;-69
2021/08/09 00:17:48;;;;;;;4.00;1.03;;;15.80;99.90;;;;;;5069397;28;20546;-69
2021/08/09 00:20:14;;;;;;;2.03;0.93;;;15.80;99.90;;;;;;5068567;28;20507;-69
2021/08/09 00:22:40;;;;;;;1.20;1.10;;;15.70;99.90;;;;;;5069559;28;20215;-69
2021/08/09 00:25:07;;;;;;;3.60;1.20;;;15.70;99.90;;;;;;5070512;28;20542;-67
2021/08/09 00:27:33;;;;;;;1.40;1.30;;;15.70;99.90;;;;;;5067396;28;20464;-69
2021/08/09 00:29:59;;;;;;;1.07;1.07;;;15.50;99.90;;;;;;5052363;28;20450;-69
2021/08/09 00:32:25;;;;;;;1.40;1.30;;;15.50;99.90;;;;;;5069527;28;20988;-67
2021/08/09 00:34:51;;;;;;;1.00;0.90;;;15.50;99.90;;;;;;5068204;28;20297;-68
2021/08/09 00:37:20;;;;;;;1.30;1.10;;;15.60;99.90;;;;;;5069123;28;20515;-69
2021/08/09 00:39:45;;;;;;;2.20;1.00;;;15.60;99.90;;;;;;5066217;28;20706;-68
2021/08/09 00:42:12;;;;;;;2.60;1.20;;;15.60;99.90;;;;;;5068439;28;20462;-68
2021/08/09 00:44:38;;;;;;;1.00;1.00;;;15.60;99.90;;;;;;5052610;28;20476;-68
2021/08/09 00:47:05;;;;;;;1.90;1.60;;;15.60;99.90;;;;;;5069165;28;20215;-68
2021/08/09 00:49:32;;;;;;;1.70;1.60;;;15.60;99.90;;;;;;5050404;28;20454;-69
2021/08/09 00:51:58;;;;;;;1.70;1.53;;;15.50;99.90;;;;;;5048612;28;21058;-69
2021/08/09 00:54:25;;;;;;;1.80;1.63;;;15.50;99.90;;;;;;5068936;28;20484;-67
2021/08/09 00:56:51;;;;;;;2.33;1.20;;;15.50;99.90;;;;;;5045886;28;20458;-69
2021/08/09 00:59:17;;;;;;;1.60;1.50;;;15.50;99.90;;;;;;5048807;28;20450;-69
2021/08/09 01:01:43;;;;;;;1.50;1.37;;;15.50;99.90;;;;;;5054756;28;20450;-67
2021/08/09 01:04:10;;;;;;;1.60;1.47;;;15.50;99.90;;;;;;5052359;28;20253;-69
2021/08/09 01:06:39;;;;;;;1.23;1.13;;;15.50;99.90;;;;;;5068356;28;20450;-69
2021/08/09 01:09:21;;;;;;;1.57;1.30;;;15.50;99.90;;;;;;5048385;28;20434;-69
2021/08/09 01:12:03;;;;;;;2.40;1.57;;;15.50;99.90;;;;;;5065091;28;20461;-68
2021/08/09 01:14:39;;;;;;;1.07;0.97;;;15.40;99.90;;;;;;5058670;28;20898;-69
2021/08/09 01:17:06;;;;;;;1.30;1.20;;;15.40;99.90;;;;;;5040715;28;21021;-68
2021/08/09 01:19:38;;;;;;;1.40;1.30;;;15.40;99.90;;;;;;5051718;28;20468;-69
2021/08/09 01:22:32;;;;;;;1.73;0.90;;;15.40;99.90;;;;;;5068358;28;20454;-69
2021/08/09 01:25:35;;;;;;;1.43;1.33;;;15.40;99.90;;;;;;5051098;28;20500;-68
2021/08/09 01:28:02;;;;;;;1.43;1.00;;;15.30;99.90;;;;;;5022989;28;20453;-68
2021/08/09 01:30:29;;;;;;;1.20;1.10;;;15.30;99.90;;;;;;5043433;28;20532;-68
2021/08/09 01:32:55;;;;;;;1.20;1.03;;;15.30;99.90;;;;;;5055510;28;20480;-69
2021/08/09 01:35:24;;;;;;;2.97;1.30;;;15.30;99.90;;;;;;5072931;28;20829;-69
2021/08/09 01:37:56;;;;;;;1.10;1.00;;;15.30;99.90;;;;;;5072195;28;20457;-69
2021/08/09 01:40:25;;;;;;;1.10;1.10;;;15.30;99.90;;;;;;5052452;28;20544;-70
2021/08/09 01:42:53;;;;;;;1.20;0.90;;;15.20;99.90;;;;;;5072028;28;20878;-69
2021/08/09 01:45:20;;;;;;;1.40;1.30;;;15.20;99.90;;;;;;5052918;28;20541;-69
2021/08/09 01:47:47;;;;;;;1.43;1.20;;;15.20;99.90;;;;;;5071393;28;20510;-69
2021/08/09 01:50:15;;;;;;;1.10;1.00;;;15.20;99.90;;;;;;5055844;28;20453;-69
2021/08/09 01:52:42;;;;;;;1.47;1.37;;;15.20;99.90;;;;;;5071705;28;20884;-69
2021/08/09 01:55:13;;;;;;;0.90;0.90;;;15.20;99.90;;;;;;5072226;28;20534;-69
2021/08/09 01:57:41;;;;;;;1.03;0.80;;;15.10;99.90;;;;;;5056111;28;20526;-69
2021/08/09 02:00:09;;;;;;;3.00;1.30;;;15.10;99.90;;;;;;5055309;28;20445;-69
2021/08/09 02:02:42;;;;;;;1.17;1.07;;;15.10;99.90;;;;;;5071771;28;20980;-69
2021/08/09 02:05:14;;;;;;;2.20;1.57;;;15.10;99.90;;;;;;5055227;28;20464;-68
2021/08/09 02:07:46;;;;;;;0.87;0.87;;;15.10;99.90;;;;;;5055717;28;20453;-68
2021/08/09 02:10:18;;;;;;;1.30;1.20;;;15.00;99.90;;;;;;5069599;28;20537;-68
2021/08/09 02:12:51;;;;;;;1.10;0.93;;;15.00;99.90;;;;;;5068457;28;20893;-69
2021/08/09 02:15:32;;;;;;;1.10;1.00;;;15.00;99.90;;;;;;5072098;28;20553;-69
2021/08/09 02:18:12;;;;;;;0.80;0.80;;;15.00;99.90;;;;;;5055106;28;20484;-69
2021/08/09 02:20:41;;;;;;;1.23;1.00;;;15.00;99.90;;;;;;5071149;28;20507;-68
2021/08/09 02:23:14;;;;;;;1.03;1.03;;;15.00;99.90;;;;;;5054970;28;20449;-68
2021/08/09 02:25:45;;;;;;;1.60;1.33;;;15.00;99.90;;;;;;5054313;28;20601;-68
2021/08/09 02:28:14;;;;;;;1.23;1.00;;;15.00;99.90;;;;;;5071747;28;20453;-68
2021/08/09 02:30:46;;;;;;;1.20;1.10;;;14.90;99.90;;;;;;5067119;28;20457;-71
2021/08/09 02:33:12;;;;;;;1.30;1.20;;;14.90;99.90;;;;;;5071558;28;21035;-69
2021/08/09 02:35:39;;;;;;;1.23;1.13;;;14.90;99.90;;;;;;5071688;28;20477;-71
2021/08/09 02:38:06;;;;;;;2.07;1.40;;;14.90;99.90;;;;;;5054836;28;20446;-69
2021/08/09 02:40:33;;;;;;;1.20;1.10;;;14.90;99.90;;;;;;5051117;28;20480;-68
2021/08/09 02:43:00;;;;;;;1.27;1.10;;;14.90;99.90;;;;;;5070220;28;20464;-69
2021/08/09 02:45:27;;;;;;;1.13;1.10;;;14.90;99.90;;;;;;5055329;28;20453;-68
2021/08/09 02:47:53;;;;;;;1.27;1.17;;;14.90;99.90;;;;;;5054573;28;20453;-68
2021/08/09 02:50:19;;;;;;;1.17;1.07;;;14.90;99.90;;;;;;5054141;28;20453;-69
2021/08/09 02:52:45;;;;;;;1.30;1.20;;;14.90;99.90;;;;;;5050574;28;20472;-69
2021/08/09 02:55:14;;;;;;;1.80;1.00;;;14.80;99.90;;;;;;5071206;28;20511;-68
2021/08/09 02:57:40;;;;;;;1.53;1.03;;;14.80;99.90;;;;;;5070205;28;20453;-68
2021/08/09 03:00:08;;;;;;;2.87;1.50;;;14.80;99.90;;;;;;5062576;28;20968;-68
2021/08/09 03:02:41;;;;;;;0.63;0.63;;;14.80;99.90;;;;;;5051231;28;21031;-69
2021/08/09 03:05:08;;;;;;;1.40;1.27;;;14.80;99.90;;;;;;5067427;28;20442;-69
2021/08/09 03:07:38;;;;;;;1.90;1.17;;;14.70;99.90;;;;;;5070691;28;21046;-69
2021/08/09 03:10:09;;;;;;;0.93;0.90;;;14.70;99.90;;;;;;5070557;28;20499;-69
2021/08/09 03:12:35;;;;;;;2.27;1.70;;;14.70;99.90;;;;;;5053753;28;20529;-69
2021/08/09 03:15:01;;;;;;;0.93;0.93;;;14.70;99.90;;;;;;5070464;28;21092;-68
2021/08/09 03:17:27;;;;;;;1.10;1.00;;;14.70;99.90;;;;;;5071247;28;20223;-69
2021/08/09 03:19:53;;;;;;;2.50;1.43;;;14.70;99.90;;;;;;5050401;28;20453;-68
2021/08/09 03:22:18;;;;;;;1.10;1.10;;;14.70;99.90;;;;;;5067721;28;20518;-68
2021/08/09 03:24:44;;;;;;;1.13;1.03;;;14.70;99.90;;;;;;5050577;28;20266;-69
2021/08/09 03:27:10;;;;;;;1.43;1.20;;;14.70;99.90;;;;;;5050961;28;20219;-69
2021/08/09 03:29:35;;;;;;;1.20;1.10;;;14.70;99.90;;;;;;5070304;28;20230;-69
2021/08/09 03:32:01;;;;;;;1.27;1.17;;;14.70;99.90;;;;;;5070113;28;20223;-68
2021/08/09 03:34:27;;;;;;;1.10;1.00;;;14.70;99.90;;;;;;5053626;28;20233;-67
2021/08/09 03:36:53;;;;;;;2.97;1.20;;;14.70;99.90;;;;;;5071620;28;20219;-69
2021/08/09 03:39:21;;;;;;;1.40;1.30;;;14.70;99.90;;;;;;5069952;28;20284;-69
2021/08/09 03:41:47;;;;;;;1.53;1.43;;;14.70;99.90;;;;;;5070135;28;20478;-69
2021/08/09 03:44:13;;;;;;;1.30;1.20;;;14.70;99.90;;;;;;5053009;28;20462;-69
2021/08/09 03:46:40;;;;;;;1.33;1.23;;;14.70;99.90;;;;;;5070265;28;20496;-68
2021/08/09 03:49:09;;;;;;;1.30;0.93;;;14.70;99.90;;;;;;5053326;28;20433;-69
2021/08/09 03:51:37;;;;;;;1.47;1.20;;;14.70;99.90;;;;;;5070180;28;20457;-69
2021/08/09 03:54:03;;;;;;;1.20;1.10;;;14.60;99.90;;;;;;5051288;28;20507;-69
2021/08/09 03:56:29;;;;;;;1.40;1.27;;;14.60;99.90;;;;;;5053921;28;20448;-67
2021/08/09 03:58:55;;;;;;;2.97;1.30;;;14.60;99.90;;;;;;5053123;28;20453;-68
2021/08/09 04:01:21;;;;;;;2.03;1.50;;;14.60;99.90;;;;;;5070200;28;20234;-69
2021/08/09 04:03:47;;;;;;;1.83;1.40;;;14.60;99.90;;;;;;5052055;28;20599;-68
2021/08/09 04:06:13;;;;;;;1.50;1.40;;;14.60;99.90;;;;;;5069702;28;20961;-68
2021/08/09 04:08:42;;;;;;;2.20;1.67;;;14.50;99.90;;;;;;5065548;28;20462;-69
2021/08/09 04:11:08;;;;;;;1.30;1.20;;;14.50;99.90;;;;;;5049097;28;20216;-68
2021/08/09 04:13:34;;;;;;;1.20;1.10;;;14.50;99.90;;;;;;5049604;28;20466;-68
2021/08/09 04:16:01;;;;;;;3.97;1.40;;;14.50;99.90;;;;;;5049160;28;20227;-68
2021/08/09 04:18:27;;;;;;;2.23;1.50;;;14.50;99.90;;;;;;5060454;28;20502;-69
2021/08/09 04:20:53;;;;;;;1.47;1.30;;;14.50;99.90;;;;;;5069081;28;20458;-68
2021/08/09 04:23:18;;;;;;;2.07;1.43;;;14.50;99.90;;;;;;5049681;28;20262;-69
2021/08/09 04:25:45;;;;;;;1.60;1.40;;;14.50;99.90;;;;;;5066061;28;20293;-69
2021/08/09 04:28:11;;;;;;;1.70;1.40;;;14.50;99.90;;;;;;5066278;28;20516;-69
2021/08/09 04:30:37;;;;;;;1.80;1.70;;;14.50;99.90;;;;;;5066352;28;20501;-69
2021/08/09 04:33:04;;;;;;;1.70;1.47;;;14.50;99.90;;;;;;5065020;28;20458;-69
2021/08/09 04:35:30;;;;;;;1.10;1.00;;;14.50;99.90;;;;;;5064377;28;20227;-69
2021/08/09 04:37:58;;;;;;;1.57;1.47;;;14.50;99.90;;;;;;5051880;28;20462;-68
2021/08/09 04:40:24;;;;;;;1.60;1.20;;;14.50;99.90;;;;;;5069156;28;20480;-69
2021/08/09 04:42:50;;;;;;;2.40;1.60;;;14.50;99.90;;;;;;5068494;28;20489;-69
2021/08/09 04:45:19;;;;;;;1.73;1.33;;;14.40;99.90;;;;;;5068648;28;20305;-68
2021/08/09 04:47:45;;;;;;;1.70;1.60;;;14.40;99.90;;;;;;5048906;28;20465;-68
2021/08/09 04:50:12;;;;;;;1.50;1.40;;;14.40;99.90;;;;;;5065885;28;20462;-68
2021/08/09 04:52:40;;;;;;;2.73;1.20;;;14.40;99.90;;;;;;5068599;28;20454;-69
2021/08/09 04:55:09;;;;;;;1.47;1.37;;;14.40;99.90;;;;;;5060350;28;20833;-68
2021/08/09 04:57:34;;;;;;;1.30;1.17;;;14.40;99.90;;;;;;5068524;28;20453;-69
2021/08/09 05:00:00;;;;;;;2.00;1.40;;;14.40;99.90;;;;;;5050607;28;20839;-69
2021/08/09 05:02:26;;;;;;;1.40;1.30;;;14.40;99.90;;;;;;5050429;28;20446;-68
2021/08/09 05:04:52;;;;;;;5.10;2.00;;;14.40;99.90;;;;;;5048304;28;20243;-68
2021/08/09 05:07:18;;;;;;;1.60;1.50;;;14.40;99.90;;;;;;5064891;28;20478;-68
2021/08/09 05:09:44;;;;;;;1.50;1.40;;;14.40;99.90;;;;;;5051282;28;20215;-69
2021/08/09 05:12:10;;;;;;;1.50;1.40;;;14.40;99.90;;;;;;5068338;28;20445;-68
2021/08/09 05:14:40;;;;;;;1.93;1.57;;;14.40;99.90;;;;;;5051878;28;20211;-69
2021/08/09 05:17:07;;;;;;;3.13;1.30;;;14.40;99.90;;;;;;5068555;28;20458;-69
2021/08/09 05:19:33;;;;;;;1.27;1.17;;;14.40;99.90;;;;;;5052393;28;20905;-69
2021/08/09 05:21:59;;;;;;;1.47;1.30;;;14.40;99.90;;;;;;5068409;28;20219;-68
2021/08/09 05:24:25;;;;;;;2.97;1.70;;;14.40;99.90;;;;;;5051641;28;20939;-68
2021/08/09 05:26:50;;;;;;;2.67;1.10;;;14.40;99.90;;;;;;5051777;28;20453;-69
2021/08/09 05:29:16;;;;;;;1.73;1.63;;;14.40;99.90;;;;;;5041765;28;20219;-69
2021/08/09 05:31:42;;;;;;;1.67;1.57;;;14.40;99.90;;;;;;5052048;28;20215;-68
2021/08/09 05:34:07;;;;;;;1.57;1.47;;;14.40;99.90;;;;;;5067365;28;20269;-70
2021/08/09 05:36:35;;;;;;;1.33;1.30;;;14.50;99.90;;;;;;5049967;28;20306;-68
2021/08/09 05:39:01;;;;;;;2.20;1.50;;;14.50;99.90;;;;;;5045232;28;20223;-68
2021/08/09 05:41:28;;;;;;;1.67;1.50;;;14.50;99.90;;;;;;5046844;28;20450;-69
2021/08/09 05:43:55;;;;;;;1.50;1.40;;;14.50;99.90;;;;;;5064258;28;20564;-68
2021/08/09 05:46:21;;;;;;;1.90;1.47;;;14.50;99.90;;;;;;5066927;28;20458;-69
2021/08/09 05:48:47;;;;;;;1.83;1.73;;;14.60;99.90;;;;;;5049816;28;20442;-68
2021/08/09 05:51:13;;;;;;;3.60;1.60;;;14.60;99.90;;;;;;5049315;28;20236;-68
2021/08/09 05:53:39;;;;;;;1.57;1.43;;;14.70;99.90;;;;;;5049853;28;21033;-69
2021/08/09 05:56:06;;;;;;;1.63;1.53;;;14.70;99.90;;;;;;5030625;28;20234;-70
2021/08/09 05:58:44;;;;;;;0.90;0.90;;;14.70;99.90;;;;;;5052880;28;20449;-68
2021/08/09 06:01:09;;;;;;;1.23;1.13;;;14.70;99.90;;;;;;5063945;28;20448;-70
2021/08/09 06:03:41;;;;;;;1.57;1.47;;;14.80;99.90;;;;;;5067061;28;20223;-70
2021/08/09 06:06:06;;;;;;;1.00;1.00;;;14.80;99.90;;;;;;5065618;28;20446;-69
2021/08/09 06:08:42;;;;;;;1.30;1.10;;;14.80;99.90;;;;;;5050974;28;20533;-68
2021/08/09 06:11:08;;;;;;;1.27;1.17;;;14.90;99.90;;;;;;5044648;28;20446;-68
2021/08/09 06:13:34;;;;;;;2.10;1.27;;;15.00;99.90;;;;;;5048778;28;21033;-69
2021/08/09 06:16:01;;;;;;;3.17;1.30;;;15.10;99.90;;;;;;5049870;28;20461;-69
2021/08/09 06:18:34;;;;;;;1.60;1.40;;;15.10;99.90;;;;;;5048702;28;20458;-68
2021/08/09 06:21:03;;;;;;;1.30;1.20;;;15.10;99.90;;;;;;5068335;28;20532;-68
2021/08/09 06:23:30;;;;;;;1.07;1.07;;;15.10;99.90;;;;;;5053732;28;20465;-71
2021/08/09 06:25:56;;;;;;;2.63;2.00;;;15.20;99.90;;;;;;5052107;28;20501;-68
2021/08/09 06:28:23;;;;;;;7.87;2.57;;;15.20;99.90;;;;;;5070485;28;20449;-68
2021/08/09 06:30:50;;;;;;;1.63;1.53;;;15.20;99.90;;;;;;5066664;28;20450;-70
2021/08/09 06:33:18;;;;;;;8.27;1.70;;;15.30;99.90;;;;;;5050173;28;20462;-68
2021/08/09 06:35:44;;;;;;;1.40;1.40;;;15.30;99.90;;;;;;5068292;28;20465;-69
2021/08/09 06:38:12;;;;;;;4.23;1.80;;;15.30;99.90;;;;;;5069894;28;20234;-70
2021/08/09 06:40:43;;;;;;;1.97;1.77;;;15.40;99.90;;;;;;5049643;28;20469;-70
2021/08/09 06:43:08;;;;;;;1.43;1.33;;;15.40;99.90;;;;;;5066470;28;20446;-70
2021/08/09 06:45:40;;;;;;;2.27;2.07;;;15.40;99.90;;;;;;5062957;28;20480;-70
2021/08/09 06:48:06;;;;;;;5.10;1.47;;;15.50;99.90;;;;;;5066968;28;20964;-70
2021/08/09 06:50:32;;;;;;;1.80;1.70;;;15.50;99.90;;;;;;5066898;28;20449;-69
2021/08/09 06:52:58;;;;;;;4.50;1.87;;;15.60;99.90;;;;;;5066073;28;20409;-70
2021/08/09 06:55:23;;;;;;;1.37;1.27;;;15.70;99.90;;;;;;5068957;28;20337;-69
2021/08/09 06:57:49;;;;;;;2.20;1.87;;;15.70;99.90;;;;;;5070403;28;20241;-68
2021/08/09 07:00:15;;;;;;;2.70;1.47;;;15.80;99.90;;;;;;5069658;28;20648;-69
2021/08/09 07:02:41;;;;;;;1.40;1.30;;;15.80;99.90;;;;;;5053913;28;20720;-70
2021/08/09 07:05:07;;;;;;;1.67;1.20;;;15.80;99.90;;;;;;5051560;28;20219;-69
2021/08/09 07:07:37;;;;;;;1.50;1.40;;;15.90;99.90;;;;;;5068365;28;20216;-69
2021/08/09 07:10:05;;;;;;;1.93;1.20;;;15.90;99.90;;;;;;5071663;28;21053;-69
2021/08/09 07:12:33;;;;;;;2.20;1.63;;;16.00;99.90;;;;;;5066793;28;20454;-69
2021/08/09 07:14:59;;;;;;;1.30;1.30;;;16.00;99.90;;;;;;5060985;28;20466;-69
2021/08/09 07:17:24;;;;;;;1.80;1.70;;;16.00;99.90;;;;;;5053942;28;20230;-69
2021/08/09 07:19:50;;;;;;;2.50;1.90;;;16.00;99.90;;;;;;5069277;28;20304;-69
2021/08/09 07:22:16;;;;;;;5.47;4.30;;;16.10;99.90;;;;;;5064862;28;20350;-69
2021/08/09 07:24:41;;;;;;;4.57;3.77;;;16.10;99.90;;;;;;5068666;28;20242;-69
2021/08/09 07:27:07;;;;;;;7.23;2.10;;;16.10;99.90;;;;;;5049516;28;20220;-69
2021/08/09 07:29:33;;;;;;;3.70;1.90;;;16.20;99.90;;;;;;5065718;28;20224;-69
2021/08/09 07:32:00;;;;;;;2.50;2.30;;;16.30;99.90;;;;;;5053158;28;20223;-69
2021/08/09 07:34:25;;;;;;;6.13;1.87;;;16.30;99.90;;;;;;5053938;28;20568;-69
2021/08/09 07:36:51;;;;;;;1.93;1.47;;;16.40;99.90;;;;;;5052777;28;20211;-69
2021/08/09 07:39:17;;;;;;;2.10;1.40;;;16.50;99.90;;;;;;5053769;28;20264;-69
2021/08/09 07:41:43;;;;;;;5.37;1.77;;;16.60;99.90;;;;;;5053618;28;20219;-69
2021/08/09 07:44:09;;;;;;;1.57;1.47;;;16.70;99.90;;;;;;5067931;28;20446;-70
2021/08/09 07:46:35;;;;;;;1.70;1.57;;;16.80;99.90;;;;;;5067209;28;20529;-69
2021/08/09 07:49:02;;;;;;;1.30;1.20;;;16.90;99.90;;;;;;5050701;28;20453;-69
2021/08/09 07:51:30;;;;;;;1.53;1.43;;;16.90;99.90;;;;;;5068393;28;20961;-70
2021/08/09 07:53:56;;;;;;;1.73;1.40;;;17.00;99.90;;;;;;5048961;28;20485;-70
2021/08/09 07:56:22;;;;;;;2.97;1.10;;;17.10;99.90;;;;;;5067086;28;20516;-69
2021/08/09 07:58:48;;;;;;;2.43;1.30;;;17.20;99.90;;;;;;5050250;28;20222;-70
2021/08/09 08:01:14;;;;;;;1.67;1.57;;;17.30;99.90;;;;;;5048158;28;20447;-70
2021/08/09 08:03:40;;;;;;;1.47;1.37;;;17.40;99.90;;;;;;5065807;28;20277;-70
2021/08/09 08:06:06;;;;;;;1.50;1.40;;;17.60;99.90;;;;;;5067368;28;20445;-71
2021/08/09 08:08:32;;;;;;;2.50;1.90;;;17.70;99.90;;;;;;5067200;28;20215;-69
2021/08/09 08:10:59;;;;;;;2.40;2.20;;;17.80;99.90;;;;;;5063086;28;20750;-70
2021/08/09 08:13:25;;;;;;;1.60;1.50;;;17.90;99.90;;;;;;5067827;28;20466;-69
2021/08/09 08:15:52;;;;;;;1.67;1.57;;;18.00;99.90;;;;;;5066056;28;21066;-67
2021/08/09 08:18:19;;;;;;;3.57;1.77;;;18.00;99.90;;;;;;5048274;28;20842;-70
2021/08/09 08:20:47;;;;;;;1.40;1.30;;;18.10;99.90;;;;;;5047841;28;20545;-70
2021/08/09 08:23:13;;;;;;;3.63;1.73;;;18.20;99.90;;;;;;5049408;28;20937;-70
2021/08/09 08:25:39;;;;;;;2.53;1.77;;;18.30;99.90;;;;;;5067376;28;20500;-71
2021/08/09 08:28:04;;;;;;;2.40;1.50;;;18.40;99.90;;;;;;5047519;28;20268;-69
2021/08/09 08:30:30;;;;;;;1.93;1.67;;;18.50;99.90;;;;;;5048345;28;20238;-69
2021/08/09 08:32:57;;;;;;;1.70;1.60;;;18.60;99.90;;;;;;5063496;28;20715;-69
2021/08/09 08:35:23;;;;;;;1.63;1.50;;;18.70;99.90;;;;;;5047757;28;20497;-69
2021/08/09 08:37:49;;;;;;;1.83;1.70;;;18.80;99.90;;;;;;5065748;28;20222;-70
2021/08/09 08:40:16;;;;;;;2.97;1.67;;;18.90;99.90;;;;;;5066181;28;20816;-69
2021/08/09 08:42:47;;;;;;;2.67;1.77;;;19.00;99.90;;;;;;5067247;28;20238;-70
2021/08/09 08:45:20;;;;;;;4.77;2.30;;;19.20;99.90;;;;;;5064901;28;20465;-69
2021/08/09 08:47:49;;;;;;;2.00;1.43;;;19.20;99.90;;;;;;5064239;28;20446;-70
2021/08/09 08:50:18;;;;;;;2.10;1.90;;;19.30;99.90;;;;;;5048588;28;20476;-70
2021/08/09 08:52:48;;;;;;;2.10;1.57;;;19.40;99.90;;;;;;5065007;28;20478;-69
2021/08/09 08:55:18;;;;;;;2.13;1.37;;;19.50;99.90;;;;;;5044484;28;20471;-71
2021/08/09 08:57:46;;;;;;;2.27;1.70;;;19.60;99.90;;;;;;5063415;28;20469;-71
2021/08/09 09:00:13;;;;;;;1.70;1.60;;;19.70;99.90;;;;;;5065535;28;20485;-69
2021/08/09 09:02:40;;;;;;;2.70;1.90;;;19.70;99.90;;;;;;5065448;28;20462;-70
2021/08/09 09:05:14;;;;;;;1.50;1.40;;;19.80;99.90;;;;;;5045557;28;20529;-70
2021/08/09 09:07:45;;;;;;;1.57;1.47;;;19.80;99.90;;;;;;5065556;28;20481;-70
2021/08/09 09:10:25;;;;;;;1.87;1.50;;;19.90;99.90;;;;;;5063108;28;20533;-70
2021/08/09 09:13:14;;;;;;;6.73;1.80;;;20.00;99.90;;;;;;5059026;28;20477;-69
2021/08/09 09:16:00;;;;;;;2.00;1.90;;;20.10;99.90;;;;;;5049914;28;20520;-69
2021/08/09 09:18:53;;;;;;;1.73;1.63;;;20.20;99.90;;;;;;5039066;28;20553;-69
2021/08/09 09:21:36;;;;;;;1.73;1.63;;;20.50;99.90;;;;;;5063260;28;20867;-70
2021/08/09 09:24:12;;;;;;;1.97;1.60;;;20.50;99.90;;;;;;5066000;28;20977;-70
2021/08/09 09:26:41;;;;;;;7.63;1.80;;;20.60;99.90;;;;;;5066932;28;20994;-69
2021/08/09 09:29:12;;;;;;;1.93;1.70;;;20.70;99.90;;;;;;5063944;28;20444;-69
2021/08/09 09:31:39;;;;;;;1.70;1.60;;;20.80;99.90;;;;;;5048149;28;20465;-69
2021/08/09 09:34:09;;;;;;;1.67;1.57;;;20.90;99.90;;;;;;5063101;28;20458;-70
2021/08/09 09:36:53;;;;;;;1.70;1.60;;;21.10;99.90;;;;;;5046901;28;20462;-70
2021/08/09 09:39:25;;;;;;;2.73;1.63;;;21.40;99.90;;;;;;5059740;28;20460;-70
2021/08/09 09:41:54;;;;;;;1.80;1.70;;;21.50;99.90;;;;;;5062014;28;20981;-69
2021/08/09 09:44:22;;;;;;;4.83;1.40;;;21.50;99.90;;;;;;5065015;28;20469;-70
2021/08/09 09:46:47;;;;;;;1.60;1.50;;;21.60;99.90;;;;;;5047410;28;20445;-69
2021/08/09 09:49:31;;;;;;;2.17;1.40;;;21.70;99.90;;;;;;5063872;28;20449;-69
2021/08/09 09:51:57;;;;;;;1.40;1.30;;;21.70;99.90;;;;;;5062898;28;20217;-70
2021/08/09 09:54:23;;;;;;;1.80;1.53;;;21.70;99.90;;;;;;5061169;28;20465;-70
2021/08/09 09:56:50;;;;;;;1.50;1.40;;;21.80;99.90;;;;;;5046414;28;20702;-70
2021/08/09 09:59:16;;;;;;;1.53;1.20;;;21.80;99.90;;;;;;5065975;28;20453;-70
2021/08/09 10:01:42;;;;;;;1.23;1.13;;;21.80;99.90;;;;;;5067080;28;20522;-70
2021/08/09 10:04:08;;;;;;;1.23;1.13;;;21.90;99.90;;;;;;5065692;28;20461;-70
2021/08/09 10:06:37;;;;;;;1.33;1.23;;;22.00;99.90;;;;;;5048514;28;20288;-69
2021/08/09 10:09:06;;;;;;;2.17;1.70;;;22.00;99.90;;;;;;5064241;28;20233;-71
2021/08/09 10:11:32;;;;;;;2.50;1.40;;;22.10;99.90;;;;;;5064846;28;20490;-71
2021/08/09 10:13:59;;;;;;;3.90;1.53;;;22.10;99.90;;;;;;5046287;28;20555;-71
2021/08/09 10:16:33;;;;;;;1.30;1.20;;;22.20;99.90;;;;;;5064234;28;20465;-70
2021/08/09 10:18:59;;;;;;;1.40;1.30;;;22.30;99.90;;;;;;5065176;28;20530;-70
2021/08/09 10:21:29;;;;;;;1.27;1.17;;;22.40;99.90;;;;;;5067233;28;20465;-70
2021/08/09 10:23:55;;;;;;;2.30;1.83;;;22.70;99.90;;;;;;5060322;28;20523;-71
2021/08/09 10:26:27;;;;;;;1.70;1.33;;;22.90;99.90;;;;;;5064972;28;20456;-69
2021/08/09 10:28:53;;;;;;;1.93;1.53;;;23.20;99.90;;;;;;5068920;28;20207;-71
2021/08/09 10:31:28;;;;;;;1.53;1.43;;;23.30;99.90;;;;;;5066644;28;20805;-70
2021/08/09 10:33:54;;;;;;;3.27;2.07;;;23.30;99.90;;;;;;5069382;28;20718;-71
2021/08/09 10:36:22;;;;;;;3.77;1.50;;;23.40;99.90;;;;;;5049964;28;20496;-70
2021/08/09 10:39:00;;;;;;;2.00;1.80;;;23.50;99.90;;;;;;5048005;28;20224;-69
2021/08/09 10:41:33;;;;;;;2.10;1.30;;;23.60;99.90;;;;;;5061803;28;20471;-71
2021/08/09 10:44:05;;;;;;;3.20;1.83;;;23.50;99.90;;;;;;5050915;28;20461;-71
2021/08/09 10:46:38;;;;;;;1.63;1.53;;;23.40;99.90;;;;;;5068729;28;20448;-70
2021/08/09 10:49:05;;;;;;;5.63;2.17;;;23.30;99.90;;;;;;5066767;28;20468;-70
2021/08/09 10:51:52;;;;;;;2.10;1.67;;;23.30;99.90;;;;;;5065290;28;20453;-70
2021/08/09 10:54:33;;;;;;;2.50;1.50;;;23.30;99.90;;;;;;5066265;28;20464;-69
2021/08/09 10:57:00;;;;;;;2.53;1.20;;;23.20;99.90;;;;;;5067754;28;20460;-70
2021/08/09 10:59:45;;;;;;;1.23;1.13;;;23.10;99.90;;;;;;5068135;28;20514;-71
2021/08/09 11:02:35;;;;;;;5.20;1.53;;;23.00;99.90;;;;;;5067190;28;20469;-70
2021/08/09 11:05:13;;;;;;;2.67;1.70;;;23.00;99.90;;;;;;5062877;28;20507;-71
2021/08/09 11:07:40;;;;;;;2.20;1.27;;;23.00;99.90;;;;;;5067577;28;20465;-71
2021/08/09 11:10:06;;;;;;;3.47;1.97;;;23.10;99.90;;;;;;5067229;28;21015;-69
2021/08/09 11:12:31;;;;;;;2.53;2.33;;;23.10;99.90;;;;;;5066341;28;20492;-71
2021/08/09 11:17:29;;;;;;;1.50;1.40;;;23.10;99.90;;;;;;5067178;28;20459;-69
2021/08/09 11:20:24;;;;;;;2.10;1.53;;;23.10;99.90;;;;;;5066583;28;20447;-70
2021/08/09 11:23:10;;;;;;;3.13;1.70;;;23.10;99.90;;;;;;5067746;28;20980;-69
2021/08/09 11:25:42;;;;;;;1.70;1.60;;;23.20;99.90;;;;;;5047651;28;21052;-70
2021/08/09 11:28:25;;;;;;;2.67;1.67;;;23.30;99.90;;;;;;5066184;28;20445;-70
2021/08/09 11:30:53;;;;;;;2.47;1.90;;;23.30;99.90;;;;;;5064634;28;20457;-71
2021/08/09 11:33:36;;;;;;;2.63;1.50;;;23.30;99.90;;;;;;5067305;28;20449;-69
2021/08/09 11:36:10;;;;;;;2.17;1.50;;;23.30;99.90;;;;;;5066472;28;20464;-70
2021/08/09 11:38:46;;;;;;;1.70;1.60;;;23.30;99.90;;;;;;5066229;28;20472;-69
2021/08/09 11:41:14;;;;;;;3.03;1.40;;;23.20;99.90;;;;;;5065611;28;20459;-70
2021/08/09 11:43:40;;;;;;;1.50;1.40;;;23.20;99.90;;;;;;5066977;28;20473;-69
2021/08/09 11:46:11;;;;;;;1.57;1.00;;;23.20;99.90;;;;;;5066220;28;20457;-71
2021/08/09 11:48:38;;;;;;;1.67;1.57;;;23.20;99.90;;;;;;5067127;28;20381;-69
2021/08/09 11:51:20;;;;;;;3.07;1.97;;;23.20;99.90;;;;;;5060556;28;23149;-70
2021/08/09 11:53:48;;;;;;;1.50;1.33;;;23.20;99.90;;;;;;5048843;28;20479;-72
2021/08/09 11:56:18;;;;;;;1.63;1.53;;;23.30;99.90;;;;;;5068338;28;20626;-71
2021/08/09 11:58:44;;;;;;;1.90;1.17;;;23.40;99.90;;;;;;5065761;28;20540;-69
2021/08/09 12:01:33;;;;;;;1.63;1.37;;;23.50;99.90;;;;;;5067465;28;20532;-70
2021/08/09 12:04:12;;;;;;;2.90;1.83;;;23.50;99.90;;;;;;5056136;28;20226;-69
2021/08/09 12:06:58;;;;;;;1.70;1.60;;;23.60;99.90;;;;;;5066533;28;20453;-69
2021/08/09 12:09:38;;;;;;;1.83;1.43;;;23.60;99.90;;;;;;5066254;28;20543;-69
2021/08/09 12:12:06;;;;;;;5.40;1.80;;;23.50;99.40;;;;;;5065499;28;20980;-69
2021/08/09 12:14:41;;;;;;;2.67;1.40;;;23.40;98.90;;;;;;5064926;28;20501;-70
2021/08/09 12:17:20;;;;;;;3.93;1.87;;;23.30;98.40;;;;;;5065428;28;20510;-69
2021/08/09 12:19:47;;;;;;;2.50;1.50;;;23.30;98.50;;;;;;5065705;28;20467;-70
2021/08/09 12:22:31;;;;;;;3.60;1.30;;;23.20;98.40;;;;;;5064899;28;20457;-69
2021/08/09 12:25:11;;;;;;;2.80;1.60;;;23.20;98.50;;;;;;5062681;28;20457;-70
2021/08/09 12:27:37;;;;;;;2.67;1.57;;;23.20;98.70;;;;;;5066468;28;20459;-70
2021/08/09 12:30:14;;;;;;;1.23;1.13;;;23.10;98.40;;;;;;5061391;28;20465;-70
2021/08/09 12:33:04;;;;;;;2.40;1.67;;;23.10;98.80;;;;;;5065859;28;20484;-71
2021/08/09 12:35:40;;;;;;;1.37;1.20;;;23.10;98.60;;;;;;5049315;28;20614;-72
2021/08/09 12:38:08;;;;;;;1.50;1.40;;;23.10;98.70;;;;;;5060145;28;20480;-70
2021/08/09 12:40:45;;;;;;;2.63;1.50;;;23.00;98.30;;;;;;5063359;28;20473;-71
2021/08/09 12:43:16;;;;;;;2.97;1.40;;;22.90;97.70;;;;;;5044439;28;20875;-69
2021/08/09 12:45:43;;;;;;;1.87;1.70;;;22.90;97.80;;;;;;5064869;28;20469;-70
2021/08/09 12:48:10;;;;;;;1.53;1.43;;;22.90;98.20;;;;;;5065154;28;20564;-71
2021/08/09 12:50:37;;;;;;;1.80;1.70;;;22.90;98.40;;;;;;5040113;28;20466;-70
2021/08/09 12:53:04;;;;;;;1.80;1.50;;;22.90;98.40;;;;;;5047566;28;20495;-72
2021/08/09 12:55:31;;;;;;;2.57;1.40;;;22.90;98.60;;;;;;5066026;28;20473;-67
2021/08/09 12:57:58;;;;;;;1.60;1.50;;;23.00;99.10;;;;;;5066883;28;20600;-70
2021/08/09 13:00:24;;;;;;;1.87;1.67;;;23.10;99.40;;;;;;5047305;28;20465;-69